createdAt,value
2019-05-07T00:00:29.081Z,0.90
2019-05-07T00:02:57.826Z,1.03
2019-05-07T00:05:26.613Z,1.10
2019-05-07T00:07:55.446Z,1.03
2019-05-07T00:10:24.970Z,1.10
2019-05-07T00:12:53.984Z,1.03
2019-05-07T00:15:23.063Z,1.00
2019-05-07T00:17:52.251Z,1.20
2019-05-07T00:20:23.124Z,1.27
2019-05-07T00:22:53.397Z,0.90
2019-05-07T00:25:22.851Z,1.00
2019-05-07T00:27:52.345Z,1.13
2019-05-07T00:30:22.348Z,1.20
2019-05-07T00:32:53.085Z,0.87
2019-05-07T00:35:29.219Z,1.10
2019-05-07T00:38:02.610Z,1.30
2019-05-07T00:40:33.193Z,0.93
2019-05-07T00:43:15.503Z,1.20
2019-05-07T00:45:49.683Z,1.00
2019-05-07T00:48:18.489Z,0.90
2019-05-07T00:50:48.939Z,1.20
2019-05-07T00:53:17.804Z,1.00
2019-05-07T00:55:46.662Z,1.37
2019-05-07T00:58:15.450Z,1.20
2019-05-07T01:00:44.563Z,0.90
2019-05-07T01:03:13.415Z,1.23
2019-05-07T01:05:43.212Z,1.10
2019-05-07T01:08:13.289Z,1.07
2019-05-07T01:10:42.193Z,1.00
2019-05-07T01:13:12.577Z,1.30
2019-05-07T01:15:42.982Z,1.00
2019-05-07T01:18:12.475Z,1.03
2019-05-07T01:20:42.334Z,0.97
2019-05-07T01:23:13.387Z,1.10
2019-05-07T01:25:43.026Z,1.23
2019-05-07T01:28:13.254Z,1.10
2019-05-07T01:30:43.202Z,1.80
2019-05-07T01:33:13.796Z,1.00
2019-05-07T01:35:44.178Z,1.10
2019-05-07T01:38:14.676Z,1.07
2019-05-07T01:40:43.598Z,0.97
2019-05-07T01:43:12.407Z,1.10
2019-05-07T01:45:48.983Z,1.17
2019-05-07T01:48:15.656Z,1.17
2019-05-07T01:50:44.395Z,1.07
2019-05-07T01:53:13.286Z,1.20
2019-05-07T01:55:42.823Z,1.20
2019-05-07T01:58:12.558Z,1.00
2019-05-07T02:00:42.482Z,1.17
2019-05-07T02:03:28.336Z,1.20
2019-05-07T02:06:02.307Z,1.00
2019-05-07T02:08:38.847Z,0.90
2019-05-07T02:11:15.620Z,1.40
2019-05-07T02:13:44.360Z,1.27
2019-05-07T02:16:13.139Z,1.20
2019-05-07T02:18:42.554Z,1.20
2019-05-07T02:21:12.894Z,1.10
2019-05-07T02:23:42.620Z,1.30
2019-05-07T02:26:13.391Z,1.20
2019-05-07T02:28:42.753Z,1.20
2019-05-07T02:31:14.869Z,1.00
2019-05-07T02:33:43.448Z,1.00
2019-05-07T02:36:14.230Z,1.57
2019-05-07T02:38:47.654Z,1.20
2019-05-07T02:41:33.342Z,1.37
2019-05-07T02:44:04.292Z,1.20
2019-05-07T02:46:36.998Z,0.97
2019-05-07T02:49:13.493Z,1.10
2019-05-07T02:51:43.728Z,1.40
2019-05-07T02:54:14.634Z,1.27
2019-05-07T02:56:43.605Z,0.90
2019-05-07T02:59:13.923Z,1.17
2019-05-07T03:01:43.394Z,1.30
2019-05-07T03:04:12.879Z,0.93
2019-05-07T03:06:44.163Z,0.90
2019-05-07T03:09:14.531Z,1.20
2019-05-07T03:11:43.471Z,1.20
2019-05-07T03:14:14.006Z,0.80
2019-05-07T03:16:47.873Z,1.10
2019-05-07T03:19:13.673Z,0.90
2019-05-07T03:24:47.645Z,0.80
2019-05-07T03:27:16.488Z,1.10
2019-05-07T03:29:46.875Z,1.13
2019-05-07T03:32:27.396Z,0.90
2019-05-07T03:34:58.645Z,1.10
2019-05-07T03:37:33.177Z,1.00
2019-05-07T03:39:59.625Z,1.00
2019-05-07T03:42:33.172Z,1.10
2019-05-07T03:45:03.661Z,1.30
2019-05-07T03:47:34.467Z,1.20
2019-05-07T03:50:03.699Z,1.27
2019-05-07T03:52:33.539Z,1.10
2019-05-07T03:55:03.663Z,0.90
2019-05-07T03:57:33.565Z,1.27
2019-05-07T04:00:04.291Z,1.07
2019-05-07T04:02:36.207Z,1.00
2019-05-07T04:05:06.308Z,1.47
2019-05-07T04:07:35.123Z,1.20
2019-05-07T04:10:09.692Z,1.50
2019-05-07T04:12:36.299Z,1.40
2019-05-07T04:15:05.511Z,1.30
2019-05-07T04:17:34.337Z,1.47
2019-05-07T04:20:04.556Z,1.30
2019-05-07T04:22:34.548Z,1.23
2019-05-07T04:25:13.509Z,1.50
2019-05-07T04:27:46.887Z,1.23
2019-05-07T04:30:14.492Z,1.10
2019-05-07T04:32:47.921Z,1.30
2019-05-07T04:35:24.556Z,1.03
2019-05-07T04:37:53.448Z,1.40
2019-05-07T04:40:23.966Z,1.30
2019-05-07T04:42:53.894Z,1.30
2019-05-07T04:45:23.456Z,1.40
2019-05-07T04:47:53.871Z,1.70
2019-05-07T04:50:37.914Z,1.63
2019-05-07T04:52:55.189Z,1.10
2019-05-07T04:55:23.991Z,1.10
2019-05-07T04:57:53.489Z,1.10
2019-05-07T05:00:23.107Z,1.03
2019-05-07T05:02:53.543Z,1.00
2019-05-07T05:05:23.796Z,1.00
2019-05-07T05:07:53.329Z,1.20
2019-05-07T05:10:23.303Z,1.20
2019-05-07T05:12:53.708Z,1.10
2019-05-07T05:15:22.668Z,0.93
2019-05-07T05:17:53.854Z,1.10
2019-05-07T05:20:23.629Z,0.80
2019-05-07T05:23:12.060Z,1.03
2019-05-07T05:25:43.160Z,0.97
2019-05-07T05:28:12.750Z,1.30
2019-05-07T05:30:46.561Z,1.57
2019-05-07T05:33:15.348Z,1.40
2019-05-07T05:35:44.087Z,1.13
2019-05-07T05:38:13.103Z,0.93
2019-05-07T05:40:42.730Z,1.10
2019-05-07T05:43:25.122Z,1.27
2019-05-07T05:46:12.071Z,1.27
2019-05-07T05:48:42.491Z,1.20
2019-05-07T05:51:13.078Z,1.00
2019-05-07T05:56:46.787Z,1.27
2019-05-07T05:59:27.248Z,0.80
2019-05-07T06:01:58.512Z,1.30
2019-05-07T06:04:28.911Z,1.30
2019-05-07T06:07:10.407Z,1.13
2019-05-07T06:09:37.286Z,1.00
2019-05-07T06:12:25.912Z,1.20
2019-05-07T06:14:59.341Z,1.93
2019-05-07T06:17:31.923Z,1.00
2019-05-07T06:20:02.908Z,0.80
2019-05-07T06:22:33.708Z,1.20
2019-05-07T06:25:04.184Z,1.10
2019-05-07T06:27:33.030Z,1.10
2019-05-07T06:30:04.529Z,1.10
2019-05-07T06:32:32.480Z,1.00
2019-05-07T06:35:03.159Z,1.13
2019-05-07T06:37:32.182Z,1.10
2019-05-07T06:40:02.740Z,1.20
2019-05-07T06:42:33.309Z,1.17
2019-05-07T06:45:06.707Z,0.63
2019-05-07T06:47:35.775Z,0.90
2019-05-07T06:50:07.659Z,1.00
2019-05-07T06:52:36.587Z,1.10
2019-05-07T06:55:07.979Z,1.00
2019-05-07T06:57:37.325Z,0.90
2019-05-07T07:00:25.204Z,0.80
2019-05-07T07:03:12.700Z,0.97
2019-05-07T07:05:43.330Z,0.80
2019-05-07T07:08:32.411Z,1.00
2019-05-07T07:11:18.483Z,1.07
2019-05-07T07:13:47.914Z,1.00
2019-05-07T07:16:16.660Z,1.10
2019-05-07T07:18:52.082Z,0.70
2019-05-07T07:21:15.931Z,0.93
2019-05-07T07:23:44.727Z,0.90
2019-05-07T07:26:13.541Z,1.00
2019-05-07T07:28:43.057Z,0.93
2019-05-07T07:31:13.569Z,0.83
2019-05-07T07:33:50.100Z,0.80
2019-05-07T07:36:22.541Z,0.90
2019-05-07T07:38:52.727Z,1.00
2019-05-07T07:41:35.119Z,0.83
2019-05-07T07:44:04.824Z,1.00
2019-05-07T07:46:33.640Z,0.80
2019-05-07T07:49:10.650Z,1.00
2019-05-07T07:51:41.556Z,0.87
2019-05-07T07:54:03.395Z,0.93
2019-05-07T07:56:48.905Z,0.70
2019-05-07T07:59:12.636Z,0.80
2019-05-07T08:01:49.179Z,1.17
2019-05-07T08:04:18.013Z,0.90
2019-05-07T08:06:48.385Z,0.83
2019-05-07T08:09:17.282Z,0.80
2019-05-07T08:11:46.017Z,0.80
2019-05-07T08:14:14.811Z,0.87
2019-05-07T08:16:43.764Z,0.80
2019-05-07T08:19:21.663Z,0.70
2019-05-07T08:21:42.994Z,0.83
2019-05-07T08:24:12.350Z,0.83
2019-05-07T08:26:42.884Z,0.67
2019-05-07T08:29:12.014Z,0.70
2019-05-07T08:31:42.718Z,0.73
2019-05-07T08:34:16.042Z,0.80
2019-05-07T08:36:45.027Z,0.97
2019-05-07T08:39:13.773Z,1.40
2019-05-07T08:41:42.541Z,0.90
2019-05-07T08:44:15.856Z,0.70
2019-05-07T08:46:46.177Z,0.70
2019-05-07T08:49:16.556Z,0.87
2019-05-07T08:51:47.030Z,0.80
2019-05-07T08:54:15.819Z,0.80
2019-05-07T08:56:44.572Z,0.93
2019-05-07T08:59:13.470Z,0.97
2019-05-07T09:01:43.291Z,0.70
2019-05-07T09:04:13.514Z,0.70
2019-05-07T09:06:43.164Z,0.73
2019-05-07T09:09:15.650Z,0.60
2019-05-07T09:11:44.716Z,1.00
2019-05-07T09:14:13.539Z,1.00
2019-05-07T09:16:42.827Z,1.10
2019-05-07T09:19:12.892Z,0.70
2019-05-07T09:21:42.852Z,0.63
2019-05-07T09:24:12.374Z,0.80
2019-05-07T09:26:59.579Z,0.90
2019-05-07T09:29:45.072Z,0.97
2019-05-07T09:32:15.709Z,0.80
2019-05-07T09:34:48.786Z,0.80
2019-05-07T09:37:19.276Z,0.70
2019-05-07T09:39:48.025Z,0.50
2019-05-07T09:42:16.817Z,0.60
2019-05-07T09:44:45.760Z,0.57
2019-05-07T09:47:14.547Z,0.70
2019-05-07T09:49:43.365Z,1.00
2019-05-07T09:52:12.451Z,0.70
2019-05-07T09:54:42.824Z,0.50
2019-05-07T09:57:27.393Z,0.57
2019-05-07T09:59:42.639Z,0.70
2019-05-07T10:02:12.252Z,0.60
2019-05-07T10:04:41.787Z,0.60
2019-05-07T10:07:12.624Z,0.67
2019-05-07T10:09:42.707Z,0.60
2019-05-07T10:12:32.960Z,0.57
2019-05-07T10:15:03.032Z,0.60
2019-05-07T10:17:49.004Z,0.67
2019-05-07T10:20:22.379Z,0.73
2019-05-07T10:22:49.477Z,0.70
2019-05-07T10:25:18.326Z,0.50
2019-05-07T10:27:47.078Z,0.43
2019-05-07T10:30:16.434Z,0.77
2019-05-07T10:32:45.751Z,0.70
2019-05-07T10:35:14.875Z,0.80
2019-05-07T10:37:43.664Z,0.60
2019-05-07T10:40:12.790Z,0.83
2019-05-07T10:42:43.065Z,0.50
2019-05-07T10:45:14.251Z,0.40
2019-05-07T10:47:47.624Z,0.67
2019-05-07T10:50:31.719Z,0.63
2019-05-07T10:52:48.752Z,0.40
2019-05-07T10:55:17.488Z,0.53
2019-05-07T10:57:46.433Z,0.47
2019-05-07T11:00:17.709Z,0.50
2019-05-07T11:02:46.452Z,0.77
2019-05-07T11:05:16.074Z,0.60
2019-05-07T11:07:44.817Z,0.50
2019-05-07T11:10:14.576Z,0.70
2019-05-07T11:12:43.449Z,0.70
2019-05-07T11:15:12.790Z,0.73
2019-05-07T11:17:46.123Z,0.60
2019-05-07T11:20:16.126Z,0.50
2019-05-07T11:22:44.980Z,0.87
2019-05-07T11:25:13.906Z,0.80
2019-05-07T11:27:42.689Z,0.60
2019-05-07T11:30:12.488Z,0.50
2019-05-07T11:32:42.973Z,0.70
2019-05-07T11:35:14.777Z,0.80
2019-05-07T11:37:44.333Z,0.50
2019-05-07T11:40:14.532Z,0.57
2019-05-07T11:42:45.211Z,0.60
2019-05-07T11:45:15.688Z,0.50
2019-05-07T11:47:44.476Z,0.70
2019-05-07T11:50:33.023Z,0.80
2019-05-07T11:53:03.619Z,0.70
2019-05-07T11:55:32.656Z,0.70
2019-05-07T11:58:02.439Z,0.50
2019-05-07T12:00:36.170Z,0.70
2019-05-07T12:03:05.159Z,0.60
2019-05-07T12:05:33.923Z,0.70
2019-05-07T12:08:03.250Z,0.40
2019-05-07T12:10:32.777Z,0.80
2019-05-07T12:13:02.499Z,0.73
2019-05-07T12:15:32.530Z,0.70
2019-05-07T12:18:03.276Z,0.67
2019-05-07T12:20:32.550Z,0.90
2019-05-07T12:23:02.854Z,0.80
2019-05-07T12:25:32.185Z,0.73
2019-05-07T12:28:02.473Z,0.73
2019-05-07T12:30:33.128Z,1.07
2019-05-07T12:33:19.894Z,0.77
2019-05-07T12:35:49.004Z,0.90
2019-05-07T12:38:17.814Z,0.60
2019-05-07T12:40:46.734Z,0.70
2019-05-07T12:43:15.529Z,0.63
2019-05-07T12:45:44.348Z,0.80
2019-05-07T12:48:14.278Z,0.40
2019-05-07T12:50:43.294Z,0.70
2019-05-07T12:53:16.866Z,0.70
2019-05-07T12:55:47.240Z,0.60
2019-05-07T12:58:16.074Z,0.70
2019-05-07T13:00:49.244Z,0.83
2019-05-07T13:03:21.701Z,0.83
2019-05-07T13:05:52.102Z,0.80
2019-05-07T13:08:23.022Z,0.80
2019-05-07T13:10:51.973Z,0.50
2019-05-07T13:13:20.794Z,0.63
2019-05-07T13:15:51.659Z,0.50
2019-05-07T13:18:20.128Z,0.70
2019-05-07T13:20:48.973Z,0.67
2019-05-07T13:23:17.678Z,0.80
2019-05-07T13:25:46.669Z,0.60
2019-05-07T13:28:15.476Z,0.60
2019-05-07T13:30:44.293Z,0.80
2019-05-07T13:33:15.387Z,0.80
2019-05-07T13:35:44.509Z,0.50
2019-05-07T13:38:15.216Z,0.60
2019-05-07T13:41:02.371Z,0.60
2019-05-07T13:43:38.929Z,0.47
2019-05-07T13:46:11.904Z,0.77
2019-05-07T13:48:45.745Z,0.60
2019-05-07T13:51:15.127Z,0.70
2019-05-07T13:53:43.960Z,0.80
2019-05-07T13:56:12.926Z,0.80
2019-05-07T13:58:42.819Z,0.67
2019-05-07T14:01:28.328Z,0.90
2019-05-07T14:03:57.778Z,0.80
2019-05-07T14:06:38.646Z,0.87
2019-05-07T14:09:11.419Z,0.70
2019-05-07T14:11:42.319Z,0.53
2019-05-07T14:14:12.344Z,0.70
2019-05-07T14:16:42.481Z,0.63
2019-05-07T14:19:13.221Z,0.90
2019-05-07T14:21:42.350Z,0.40
2019-05-07T14:24:12.453Z,0.70
2019-05-07T14:26:42.209Z,0.70
2019-05-07T14:29:11.471Z,0.63
2019-05-07T14:31:42.495Z,0.70
2019-05-07T14:34:27.498Z,0.57
2019-05-07T14:37:04.786Z,0.73
2019-05-07T14:39:33.912Z,0.90
2019-05-07T14:42:04.319Z,0.83
2019-05-07T14:44:49.220Z,0.47
2019-05-07T14:47:19.495Z,0.80
2019-05-07T14:49:48.955Z,0.47
2019-05-07T14:52:29.057Z,0.70
2019-05-07T14:54:48.544Z,0.53
2019-05-07T14:57:17.447Z,0.50
2019-05-07T14:59:46.382Z,0.70
2019-05-07T15:02:15.205Z,0.80
2019-05-07T15:04:44.023Z,0.90
2019-05-07T15:07:12.987Z,0.93
2019-05-07T15:09:42.619Z,0.90
2019-05-07T15:12:14.451Z,0.60
2019-05-07T15:14:42.246Z,0.73
2019-05-07T15:17:22.247Z,0.70
2019-05-07T15:19:52.106Z,0.67
2019-05-07T15:22:25.445Z,0.80
2019-05-07T15:24:54.438Z,0.70
2019-05-07T15:27:23.878Z,0.70
2019-05-07T15:29:52.752Z,0.70
2019-05-07T15:32:21.900Z,0.70
2019-05-07T15:34:52.619Z,0.73
2019-05-07T15:37:21.132Z,0.70
2019-05-07T15:39:50.146Z,0.80
2019-05-07T15:42:18.893Z,1.10
2019-05-07T15:44:47.617Z,0.70
2019-05-07T15:47:18.097Z,0.70
2019-05-07T15:49:46.845Z,0.80
2019-05-07T15:52:23.204Z,0.60
2019-05-07T15:54:52.283Z,0.60
2019-05-07T15:57:25.564Z,0.70
2019-05-07T15:59:56.405Z,0.47
2019-05-07T16:02:32.030Z,0.60
2019-05-07T16:05:02.248Z,0.63
2019-05-07T16:07:32.727Z,0.63
2019-05-07T16:10:01.546Z,0.60
2019-05-07T16:12:31.967Z,0.70
2019-05-07T16:15:03.209Z,0.70
2019-05-07T16:17:36.449Z,0.60
2019-05-07T16:20:06.608Z,0.73
2019-05-07T16:22:37.462Z,0.70
2019-05-07T16:25:07.450Z,0.90
2019-05-07T16:27:38.199Z,0.80
2019-05-07T16:30:07.520Z,0.80
2019-05-07T16:32:36.278Z,0.70
2019-05-07T16:35:06.901Z,0.50
2019-05-07T16:37:35.624Z,0.73
2019-05-07T16:40:08.610Z,0.83
2019-05-07T16:42:38.165Z,0.50
2019-05-07T16:45:07.592Z,0.93
2019-05-07T16:47:36.571Z,0.77
2019-05-07T16:50:07.659Z,0.60
2019-05-07T16:52:36.461Z,0.70
2019-05-07T16:55:06.783Z,0.60
2019-05-07T16:57:37.277Z,0.70
2019-05-07T17:00:09.603Z,0.63
2019-05-07T17:02:49.002Z,0.77
2019-05-07T17:05:18.068Z,0.73
2019-05-07T17:07:52.115Z,0.77
2019-05-07T17:10:22.349Z,0.83
2019-05-07T17:12:52.448Z,0.80
2019-05-07T17:15:22.741Z,0.80
2019-05-07T17:18:02.849Z,0.80
2019-05-07T17:20:33.060Z,0.80
2019-05-07T17:23:03.046Z,0.80
2019-05-07T17:25:37.354Z,0.80
2019-05-07T17:28:08.019Z,0.90
2019-05-07T17:30:37.892Z,0.70
2019-05-07T17:33:06.887Z,1.40
2019-05-07T17:35:35.874Z,1.10
2019-05-07T17:38:09.442Z,0.73
2019-05-07T17:40:35.097Z,0.60
2019-05-07T17:43:04.007Z,0.73
2019-05-07T17:45:33.013Z,0.93
2019-05-07T17:48:03.171Z,0.70
2019-05-07T17:50:42.693Z,1.10
2019-05-07T17:53:11.953Z,0.90
2019-05-07T17:55:42.331Z,0.90
2019-05-07T17:58:12.853Z,0.70
2019-05-07T18:00:43.786Z,0.93
2019-05-07T18:03:32.219Z,0.90
2019-05-07T18:06:02.201Z,0.53
2019-05-07T18:08:32.681Z,0.53
2019-05-07T18:11:02.504Z,0.80
2019-05-07T18:13:32.198Z,0.90
2019-05-07T18:16:03.184Z,0.93
2019-05-07T18:18:32.748Z,0.70
2019-05-07T18:21:02.406Z,0.70
2019-05-07T18:23:32.454Z,0.83
2019-05-07T18:26:01.442Z,0.67
2019-05-07T18:28:32.387Z,0.70
2019-05-07T18:31:02.077Z,1.07
2019-05-07T18:33:36.921Z,0.90
2019-05-07T18:36:05.732Z,0.90
2019-05-07T18:38:34.517Z,0.80
2019-05-07T18:41:06.353Z,0.70
2019-05-07T18:43:35.306Z,0.87
2019-05-07T18:46:04.047Z,0.90
2019-05-07T18:48:32.815Z,0.70
2019-05-07T18:51:02.712Z,0.80
2019-05-07T18:53:31.981Z,0.67
2019-05-07T18:56:01.731Z,0.80
2019-05-07T18:58:31.966Z,0.77
2019-05-07T19:01:11.527Z,0.70
2019-05-07T19:03:42.295Z,1.00
2019-05-07T19:06:13.496Z,0.73
2019-05-07T19:08:42.357Z,0.77
2019-05-07T19:11:12.289Z,0.70
2019-05-07T19:14:02.877Z,0.80
2019-05-07T19:16:32.304Z,1.00
2019-05-07T19:19:01.262Z,1.10
2019-05-07T19:21:31.972Z,0.80
2019-05-07T19:24:02.340Z,0.97
2019-05-07T19:26:31.448Z,0.87
2019-05-07T19:29:02.444Z,1.23
2019-05-07T19:31:32.547Z,0.93
2019-05-07T19:34:03.078Z,0.80
2019-05-07T19:36:32.284Z,0.97
2019-05-07T19:39:01.942Z,0.90
2019-05-07T19:41:32.139Z,0.80
2019-05-07T19:44:02.016Z,0.97
2019-05-07T19:46:34.060Z,0.80
2019-05-07T19:49:02.953Z,1.30
2019-05-07T19:51:32.120Z,0.90
2019-05-07T19:54:04.078Z,0.90
2019-05-07T19:56:32.899Z,0.87
2019-05-07T19:59:01.752Z,0.80
2019-05-07T20:01:32.405Z,0.97
2019-05-07T20:04:02.546Z,1.00
2019-05-07T20:06:32.460Z,1.00
2019-05-07T20:09:09.883Z,1.10
2019-05-07T20:11:43.277Z,0.93
2019-05-07T20:14:12.250Z,0.90
2019-05-07T20:16:42.866Z,0.90
2019-05-07T20:19:12.161Z,1.10
2019-05-07T20:21:41.152Z,1.00
2019-05-07T20:24:12.308Z,1.00
2019-05-07T20:26:40.345Z,0.80
2019-05-07T20:29:09.322Z,0.90
2019-05-07T20:31:38.047Z,0.73
2019-05-07T20:34:06.853Z,0.90
2019-05-07T20:36:35.779Z,0.70
2019-05-07T20:39:06.998Z,1.17
2019-05-07T20:41:36.214Z,0.90
2019-05-07T20:44:05.219Z,0.60
2019-05-07T20:46:33.958Z,0.97
2019-05-07T20:49:03.170Z,0.97
2019-05-07T20:51:34.808Z,0.90
2019-05-07T20:54:05.453Z,0.87
2019-05-07T20:56:36.011Z,0.90
2019-05-07T20:59:04.752Z,1.00
2019-05-07T21:01:36.432Z,1.10
2019-05-07T21:04:05.365Z,0.97
2019-05-07T21:06:34.195Z,0.80
2019-05-07T21:09:04.392Z,0.97
2019-05-07T21:11:33.566Z,0.83
2019-05-07T21:14:03.848Z,1.00
2019-05-07T21:16:33.034Z,0.90
2019-05-07T21:19:02.245Z,0.90
2019-05-07T21:21:32.722Z,1.10
2019-05-07T21:24:02.206Z,0.80
2019-05-07T21:26:32.687Z,0.90
2019-05-07T21:29:03.010Z,1.00
2019-05-07T21:31:32.375Z,0.80
2019-05-07T21:34:03.095Z,0.90
2019-05-07T21:36:32.475Z,0.80
2019-05-07T21:39:02.419Z,1.00
2019-05-07T21:41:33.498Z,0.90
2019-05-07T21:44:01.932Z,0.87
2019-05-07T21:46:32.939Z,0.90
2019-05-07T21:49:02.575Z,1.00
2019-05-07T21:51:32.114Z,0.87
2019-05-07T21:54:05.462Z,0.97
2019-05-07T21:56:54.570Z,0.97
2019-05-07T21:59:28.033Z,0.93
2019-05-07T22:01:58.841Z,1.17
2019-05-07T22:04:27.772Z,0.97
2019-05-07T22:06:56.590Z,0.97
2019-05-07T22:09:25.565Z,0.73
2019-05-07T22:11:54.433Z,0.83
2019-05-07T22:14:23.171Z,0.87
2019-05-07T22:16:54.285Z,0.90
2019-05-07T22:19:22.524Z,1.10
2019-05-07T22:21:52.287Z,0.93
2019-05-07T22:24:22.463Z,0.70
2019-05-07T22:26:51.395Z,0.80
2019-05-07T22:29:20.109Z,0.93
2019-05-07T22:31:52.856Z,1.00
2019-05-07T22:34:25.640Z,0.90
2019-05-07T22:36:55.048Z,1.00
2019-05-07T22:39:24.004Z,0.90
2019-05-07T22:41:52.820Z,0.90
2019-05-07T22:44:25.895Z,0.90
2019-05-07T22:46:52.708Z,1.23
2019-05-07T22:49:22.924Z,1.00
2019-05-07T22:51:54.585Z,1.00
2019-05-07T22:54:31.980Z,0.90
2019-05-07T22:57:05.660Z,0.83
2019-05-07T22:59:34.473Z,0.80
2019-05-07T23:02:03.888Z,1.20
2019-05-07T23:04:32.902Z,0.90
2019-05-07T23:07:02.304Z,0.90
2019-05-07T23:09:31.300Z,1.17
2019-05-07T23:12:02.207Z,0.87
2019-05-07T23:14:33.016Z,1.03
2019-05-07T23:17:02.364Z,1.00
2019-05-07T23:19:32.677Z,1.20
2019-05-07T23:22:03.533Z,1.07
2019-05-07T23:24:32.525Z,0.80
2019-05-07T23:27:04.313Z,1.00
2019-05-07T23:29:33.376Z,0.73
2019-05-07T23:32:02.317Z,0.90
2019-05-07T23:34:32.576Z,0.90
2019-05-07T23:37:02.519Z,0.70
2019-05-07T23:39:33.136Z,0.90
2019-05-07T23:42:10.015Z,0.90
2019-05-07T23:44:39.020Z,1.13
2019-05-07T23:47:07.805Z,0.90
2019-05-07T23:49:36.571Z,0.90
2019-05-07T23:52:05.606Z,0.90
2019-05-07T23:54:34.422Z,1.10
2019-05-07T23:57:08.761Z,1.03
2019-05-07T23:59:34.012Z,0.90
